createdAt,value
2022-12-09T00:02:42.589Z,99726.59
2022-12-09T00:05:29.968Z,99724.91
2022-12-09T00:08:16.992Z,99726.69
2022-12-09T00:11:05.120Z,99732.81
2022-12-09T00:13:53.463Z,99726.69
2022-12-09T00:16:41.047Z,99733.66
2022-12-09T00:19:29.941Z,99732.81
2022-12-09T00:22:17.624Z,99731.88
2022-12-09T00:25:04.885Z,99727.44
2022-12-09T00:27:51.906Z,99725.66
2022-12-09T00:30:38.709Z,99725.75
2022-12-09T00:33:26.152Z,99738.91
2022-12-09T00:36:17.039Z,99725.94
2022-12-09T00:39:04.125Z,99732.97
2022-12-09T00:41:51.514Z,99734.69
2022-12-09T00:44:38.932Z,99727.53
2022-12-09T00:47:25.955Z,99733.66
2022-12-09T00:50:13.109Z,99726.69
2022-12-09T00:53:01.609Z,99725.84
2022-12-09T00:55:49.312Z,99728.56
2022-12-09T00:58:36.784Z,99723.12
2022-12-09T01:01:24.354Z,99728.47
2022-12-09T01:04:11.175Z,99726.69
2022-12-09T01:06:58.296Z,99721.50
2022-12-09T01:09:48.917Z,99724.31
2022-12-09T01:12:36.600Z,99726.16
2022-12-09T01:15:23.927Z,99735.00
2022-12-09T01:18:12.955Z,99733.13
2022-12-09T01:21:00.495Z,99736.53
2022-12-09T01:23:48.042Z,99733.13
2022-12-09T01:26:36.425Z,99734.84
2022-12-09T01:29:24.092Z,99743.50
2022-12-09T01:32:10.864Z,99738.06
2022-12-09T01:34:59.438Z,99738.91
2022-12-09T01:37:46.809Z,99738.75
2022-12-09T01:40:34.233Z,99738.59
2022-12-09T01:43:22.666Z,99737.75
2022-12-09T01:46:10.102Z,99743.94
2022-12-09T01:48:57.599Z,99743.88
2022-12-09T01:51:50.922Z,99734.19
2022-12-09T01:54:38.922Z,99732.47
2022-12-09T01:57:25.736Z,99730.69
2022-12-09T02:00:16.331Z,99727.22
2022-12-09T02:03:03.629Z,99728.06
2022-12-09T02:05:51.238Z,99733.25
2022-12-09T02:08:38.989Z,99728.91
2022-12-09T02:11:42.043Z,99732.31
2022-12-09T02:14:36.190Z,99728.91
2022-12-09T02:17:32.304Z,99726.28
2022-12-09T02:20:24.804Z,99722.72
2022-12-09T02:23:17.167Z,99726.19
2022-12-09T02:26:15.546Z,99717.44
2022-12-09T02:29:15.452Z,99715.12
2022-12-09T02:32:21.588Z,99715.91
2022-12-09T02:35:14.735Z,99716.75
2022-12-09T02:38:10.569Z,99716.75
2022-12-09T02:41:03.277Z,99717.69
2022-12-09T02:43:54.938Z,99717.84
2022-12-09T02:46:45.028Z,99721.34
2022-12-09T02:49:34.988Z,99708.16
2022-12-09T02:52:24.164Z,99713.25
2022-12-09T02:55:16.116Z,99708.84
2022-12-09T02:58:04.123Z,99707.94
2022-12-09T03:00:53.043Z,99702.69
2022-12-09T03:03:40.420Z,99703.53
2022-12-09T03:06:32.106Z,99697.31
2022-12-09T03:09:23.407Z,99699.19
2022-12-09T03:12:16.014Z,99701.97
2022-12-09T03:15:09.101Z,99701.38
2022-12-09T03:17:59.760Z,99700.69
2022-12-09T03:20:49.192Z,99697.19
2022-12-09T03:23:37.913Z,99697.19
2022-12-09T03:26:29.541Z,99692.12
2022-12-09T03:29:19.268Z,99693.91
2022-12-09T03:32:06.855Z,99694.91
2022-12-09T03:35:00.647Z,99693.06
2022-12-09T03:37:49.513Z,99687.78
2022-12-09T03:40:39.433Z,99677.25
2022-12-09T03:43:31.198Z,99680.66
2022-12-09T03:46:19.492Z,99673.69
2022-12-09T03:49:06.927Z,99677.25
2022-12-09T03:51:58.020Z,99672.50
2022-12-09T03:54:47.350Z,99664.06
2022-12-09T03:57:39.248Z,99664.16
2022-12-09T04:00:28.162Z,99665.09
2022-12-09T04:03:15.864Z,99666.03
2022-12-09T04:06:03.169Z,99670.53
2022-12-09T04:08:51.001Z,99667.03
2022-12-09T04:11:38.551Z,99665.41
2022-12-09T04:14:25.684Z,99668.91
2022-12-09T04:17:13.906Z,99668.03
2022-12-09T04:20:01.500Z,99672.41
2022-12-09T04:23:04.161Z,99667.91
2022-12-09T04:26:09.792Z,99658.22
2022-12-09T04:28:57.452Z,99671.38
2022-12-09T04:31:46.447Z,99668.66
2022-12-09T04:34:44.167Z,99663.47
2022-12-09T04:37:48.556Z,99662.72
2022-12-09T04:40:58.115Z,99667.03
2022-12-09T04:43:49.316Z,99660.16
2022-12-09T04:46:36.698Z,99664.41
2022-12-09T04:49:30.557Z,99662.94
2022-12-09T04:52:24.026Z,99650.56
2022-12-09T04:55:17.609Z,99663.72
2022-12-09T04:58:07.350Z,99654.97
2022-12-09T05:01:10.616Z,99663.72
2022-12-09T05:03:58.716Z,99665.41
2022-12-09T05:06:46.388Z,99664.41
2022-12-09T05:09:35.187Z,99662.62
2022-12-09T05:12:22.632Z,99662.62
2022-12-09T05:15:09.908Z,99661.69
2022-12-09T05:17:59.559Z,99664.31
2022-12-09T05:20:46.583Z,99668.66
2022-12-09T05:23:34.562Z,99668.66
2022-12-09T05:26:24.318Z,99670.34
2022-12-09T05:29:11.697Z,99674.69
2022-12-09T05:31:59.490Z,99666.59
2022-12-09T05:34:46.954Z,99668.25
2022-12-09T05:37:34.045Z,99665.75
2022-12-09T05:40:21.814Z,99661.34
2022-12-09T05:43:10.422Z,99655.50
2022-12-09T05:45:57.711Z,99664.63
2022-12-09T05:48:45.266Z,99656.16
2022-12-09T05:51:33.049Z,99644.00
2022-12-09T05:54:20.238Z,99651.22
2022-12-09T05:57:07.998Z,99649.69
2022-12-09T05:59:56.325Z,99649.91
2022-12-09T06:02:43.497Z,99646.78
2022-12-09T06:05:31.737Z,99644.47
2022-12-09T06:08:18.896Z,99643.94
2022-12-09T06:11:11.102Z,99646.97
2022-12-09T06:13:57.858Z,99651.06
2022-12-09T06:16:46.747Z,99649.78
2022-12-09T06:19:34.285Z,99651.19
2022-12-09T06:22:21.899Z,99653.81
2022-12-09T06:25:09.625Z,99652.78
2022-12-09T06:27:57.469Z,99648.97
2022-12-09T06:30:44.695Z,99655.16
2022-12-09T06:36:41.073Z,99661.56
2022-12-09T06:39:28.506Z,99654.50
2022-12-09T06:42:15.630Z,99653.38
2022-12-09T06:45:03.185Z,99653.31
2022-12-09T06:47:50.219Z,99650.59
2022-12-09T06:50:39.279Z,99649.81
2022-12-09T06:53:27.121Z,99645.50
2022-12-09T06:56:16.224Z,99655.84
2022-12-09T06:59:07.770Z,99652.44
2022-12-09T07:01:55.377Z,99653.13
2022-12-09T07:04:42.459Z,99651.81
2022-12-09T07:07:31.694Z,99656.84
2022-12-09T07:10:19.923Z,99662.62
2022-12-09T07:13:07.298Z,99664.41
2022-12-09T07:15:54.035Z,99663.50
2022-12-09T07:18:42.252Z,99668.50
2022-12-09T07:21:29.787Z,99673.44
2022-12-09T07:24:20.177Z,99681.16
2022-12-09T07:27:10.697Z,99677.69
2022-12-09T07:30:00.470Z,99687.44
2022-12-09T07:32:47.313Z,99683.72
2022-12-09T07:35:34.663Z,99693.31
2022-12-09T07:38:22.412Z,99678.16
2022-12-09T07:41:18.283Z,99685.88
2022-12-09T07:44:05.583Z,99682.28
2022-12-09T07:46:52.981Z,99680.59
2022-12-09T07:49:40.635Z,99684.84
2022-12-09T07:52:28.874Z,99685.94
2022-12-09T07:55:15.859Z,99686.19
2022-12-09T07:58:04.544Z,99680.69
2022-12-09T08:00:51.610Z,99686.63
2022-12-09T08:03:40.273Z,99682.13
2022-12-09T08:06:29.365Z,99682.91
2022-12-09T08:09:16.765Z,99676.47
2022-12-09T08:12:04.358Z,99684.03
2022-12-09T08:14:52.980Z,99677.66
2022-12-09T08:17:40.424Z,99683.19
2022-12-09T08:20:29.577Z,99682.25
2022-12-09T08:23:17.356Z,99686.75
2022-12-09T08:26:05.668Z,99685.03
2022-12-09T08:28:54.160Z,99689.37
2022-12-09T08:31:44.245Z,99686.50
2022-12-09T08:34:31.733Z,99689.03
2022-12-09T08:37:18.833Z,99691.84
2022-12-09T08:40:07.698Z,99695.41
2022-12-09T08:42:55.019Z,99694.56
2022-12-09T08:45:42.703Z,99701.44
2022-12-09T08:48:32.114Z,99699.66
2022-12-09T08:51:19.133Z,99702.03
2022-12-09T08:54:07.167Z,99705.53
2022-12-09T08:56:56.256Z,99696.75
2022-12-09T08:59:45.469Z,99705.28
2022-12-09T09:02:33.057Z,99700.94
2022-12-09T09:05:22.242Z,99695.69
2022-12-09T09:08:09.854Z,99704.09
2022-12-09T09:10:58.338Z,99701.47
2022-12-09T09:13:47.797Z,99696.13
2022-12-09T09:16:36.451Z,99697.81
2022-12-09T09:19:26.122Z,99697.63
2022-12-09T09:22:15.714Z,99686.78
2022-12-09T09:25:03.280Z,99687.53
2022-12-09T09:27:50.537Z,99679.47
2022-12-09T09:30:37.920Z,99686.19
2022-12-09T09:33:25.720Z,99675.38
2022-12-09T09:36:16.248Z,99676.31
2022-12-09T09:39:05.338Z,99676.41
2022-12-09T09:41:54.500Z,99678.28
2022-12-09T09:44:46.419Z,99677.34
2022-12-09T09:47:38.852Z,99676.25
2022-12-09T09:53:24.735Z,99669.28
2022-12-09T09:56:26.192Z,99668.84
2022-12-09T09:59:21.512Z,99657.09
2022-12-09T10:02:19.992Z,99655.81
2022-12-09T10:05:15.812Z,99655.38
2022-12-09T10:08:19.929Z,99656.97
2022-12-09T10:11:18.524Z,99650.50
2022-12-09T10:14:16.316Z,99642.56
2022-12-09T10:17:16.502Z,99641.50
2022-12-09T10:20:08.146Z,99628.91
2022-12-09T10:23:02.873Z,99633.50
2022-12-09T10:25:54.704Z,99633.16
2022-12-09T10:28:50.293Z,99629.59
2022-12-09T10:31:37.454Z,99625.38
2022-12-09T10:34:25.924Z,99618.84
2022-12-09T10:37:25.896Z,99613.06
2022-12-09T10:40:22.042Z,99607.88
2022-12-09T10:43:39.595Z,99615.69
2022-12-09T10:46:29.100Z,99608.91
2022-12-09T10:49:21.799Z,99612.00
2022-12-09T10:52:09.313Z,99610.50
2022-12-09T10:54:56.621Z,99603.91
2022-12-09T10:57:43.978Z,99602.78
2022-12-09T11:00:34.803Z,99602.84
2022-12-09T11:03:29.731Z,99593.22
2022-12-09T11:06:23.901Z,99595.28
2022-12-09T11:09:22.566Z,99585.31
2022-12-09T11:12:19.354Z,99584.38
2022-12-09T11:15:23.323Z,99574.66
2022-12-09T11:18:19.208Z,99582.31
2022-12-09T11:21:09.765Z,99573.63
2022-12-09T11:24:02.937Z,99573.06
2022-12-09T11:26:51.614Z,99572.22
2022-12-09T11:29:39.077Z,99573.81
2022-12-09T11:32:27.011Z,99569.56
2022-12-09T11:35:21.646Z,99565.47
2022-12-09T11:38:31.833Z,99569.38
2022-12-09T11:41:38.779Z,99568.53
2022-12-09T11:44:28.110Z,99562.34
2022-12-09T11:47:23.025Z,99564.16
2022-12-09T11:50:18.709Z,99560.38
2022-12-09T11:53:26.974Z,99564.03
2022-12-09T11:56:19.123Z,99556.75
2022-12-09T11:59:11.690Z,99561.28
2022-12-09T12:02:05.898Z,99558.94
2022-12-09T12:04:58.448Z,99561.78
2022-12-09T12:07:49.904Z,99565.34
2022-12-09T12:10:41.157Z,99565.56
2022-12-09T12:13:36.996Z,99572.41
2022-12-09T12:16:36.114Z,99568.53
2022-12-09T12:19:31.472Z,99574.37
2022-12-09T12:22:35.210Z,99569.09
2022-12-09T12:25:35.486Z,99576.47
2022-12-09T12:28:57.273Z,99573.25
2022-12-09T12:32:07.139Z,99570.94
2022-12-09T12:35:08.822Z,99572.44
2022-12-09T12:38:05.812Z,99574.50
2022-12-09T12:40:59.216Z,99575.25
2022-12-09T12:44:20.206Z,99570.47
2022-12-09T12:47:15.401Z,99569.44
2022-12-09T12:50:28.431Z,99567.63
2022-12-09T12:53:27.431Z,99559.78
2022-12-09T12:56:18.196Z,99558.03
2022-12-09T12:59:16.439Z,99561.69
2022-12-09T13:02:16.902Z,99562.00
2022-12-09T13:05:13.034Z,99562.84
2022-12-09T13:08:02.513Z,99567.84
2022-12-09T13:10:53.438Z,99561.31
2022-12-09T13:13:45.741Z,99552.94
2022-12-09T13:16:38.248Z,99549.94
2022-12-09T13:19:29.427Z,99546.72
2022-12-09T13:22:21.140Z,99549.38
2022-12-09T13:25:18.824Z,99547.50
2022-12-09T13:28:12.036Z,99555.00
2022-12-09T13:31:00.447Z,99550.41
2022-12-09T13:33:58.147Z,99556.12
2022-12-09T13:36:47.354Z,99546.94
2022-12-09T13:40:02.706Z,99545.81
2022-12-09T13:42:56.384Z,99545.69
2022-12-09T13:45:56.523Z,99543.06
2022-12-09T13:48:49.052Z,99540.12
2022-12-09T13:51:46.594Z,99541.81
2022-12-09T13:54:33.696Z,99538.25
2022-12-09T13:57:29.914Z,99546.09
2022-12-09T14:00:19.006Z,99543.72
2022-12-09T14:03:22.715Z,99539.19
2022-12-09T14:06:21.867Z,99540.78
2022-12-09T14:09:24.646Z,99540.78
2022-12-09T14:12:12.536Z,99538.25
2022-12-09T14:15:01.592Z,99543.03
2022-12-09T14:18:03.341Z,99545.03
2022-12-09T14:21:31.059Z,99543.69
2022-12-09T14:24:43.502Z,99535.03
2022-12-09T14:27:31.861Z,99541.34
2022-12-09T14:30:48.653Z,99545.25
2022-12-09T14:33:37.950Z,99538.94
2022-12-09T14:36:31.860Z,99545.25
2022-12-09T14:39:26.443Z,99544.63
2022-12-09T14:42:26.942Z,99543.69
2022-12-09T14:45:22.454Z,99549.56
2022-12-09T14:48:11.287Z,99541.53
2022-12-09T14:51:15.785Z,99544.19
2022-12-09T14:54:05.885Z,99540.50
2022-12-09T14:56:54.662Z,99535.97
2022-12-09T14:59:50.232Z,99538.53
2022-12-09T15:02:37.575Z,99535.69
2022-12-09T15:05:24.908Z,99532.72
2022-12-09T15:08:30.599Z,99539.97
2022-12-09T15:11:19.466Z,99538.94
2022-12-09T15:14:28.345Z,99550.63
2022-12-09T15:17:24.061Z,99545.91
2022-12-09T15:20:26.931Z,99540.31
2022-12-09T15:23:20.199Z,99535.44
2022-12-09T15:26:09.226Z,99535.78
2022-12-09T15:28:59.359Z,99536.53
2022-12-09T15:31:49.721Z,99525.81
2022-12-09T15:34:38.020Z,99523.66
2022-12-09T15:37:29.431Z,99534.09
2022-12-09T15:40:22.220Z,99534.69
2022-12-09T15:43:12.462Z,99535.53
2022-12-09T15:45:59.509Z,99542.19
2022-12-09T15:48:52.117Z,99534.09
2022-12-09T15:51:43.521Z,99534.28
2022-12-09T15:54:35.956Z,99531.66
2022-12-09T15:57:24.307Z,99526.16
2022-12-09T16:00:13.360Z,99533.12
2022-12-09T16:03:00.980Z,99545.59
2022-12-09T16:05:52.895Z,99532.62
2022-12-09T16:08:44.314Z,99536.22
2022-12-09T16:11:40.071Z,99537.28
2022-12-09T16:14:44.310Z,99526.53
2022-12-09T16:17:55.470Z,99520.31
2022-12-09T16:21:27.627Z,99534.59
2022-12-09T16:24:34.433Z,99549.56
2022-12-09T16:27:37.383Z,99546.22
2022-12-09T16:30:31.743Z,99550.72
2022-12-09T16:33:24.289Z,99554.09
2022-12-09T16:36:19.794Z,99543.66
2022-12-09T16:39:40.272Z,99544.00
2022-12-09T16:42:39.338Z,99547.00
2022-12-09T16:45:32.774Z,99544.00
2022-12-09T16:48:20.995Z,99551.19
2022-12-09T16:51:13.791Z,99551.37
2022-12-09T16:54:01.380Z,99542.19
2022-12-09T16:56:48.583Z,99552.75
2022-12-09T16:59:38.274Z,99555.94
2022-12-09T17:02:34.498Z,99549.69
2022-12-09T17:05:21.574Z,99554.28
2022-12-09T17:08:09.832Z,99555.81
2022-12-09T17:10:56.607Z,99552.56
2022-12-09T17:13:43.547Z,99558.19
2022-12-09T17:16:33.765Z,99551.87
2022-12-09T17:19:24.640Z,99557.81
2022-12-09T17:22:12.315Z,99551.50
2022-12-09T17:24:59.663Z,99553.91
2022-12-09T17:27:46.462Z,99554.34
2022-12-09T17:30:38.537Z,99556.72
2022-12-09T17:33:27.491Z,99562.84
2022-12-09T17:36:16.165Z,99559.87
2022-12-09T17:39:03.388Z,99560.22
2022-12-09T17:41:50.383Z,99554.88
2022-12-09T17:44:37.299Z,99559.19
2022-12-09T17:47:24.532Z,99563.47
2022-12-09T17:50:12.660Z,99563.97
2022-12-09T17:52:59.982Z,99564.13
2022-12-09T17:55:47.000Z,99564.13
2022-12-09T17:58:34.108Z,99578.75
2022-12-09T18:01:23.614Z,99575.53
2022-12-09T18:04:11.646Z,99579.25
2022-12-09T18:06:59.901Z,99587.50
2022-12-09T18:09:52.922Z,99590.06
2022-12-09T18:12:41.442Z,99583.53
2022-12-09T18:15:28.427Z,99584.53
2022-12-09T18:18:15.212Z,99590.81
2022-12-09T18:21:03.310Z,99594.72
2022-12-09T18:23:51.599Z,99594.63
2022-12-09T18:26:42.050Z,99589.31
2022-12-09T18:29:29.217Z,99589.78
2022-12-09T18:32:16.674Z,99593.69
2022-12-09T18:35:03.511Z,99595.66
2022-12-09T18:37:50.715Z,99597.25
2022-12-09T18:41:01.042Z,99602.88
2022-12-09T18:43:50.696Z,99603.22
2022-12-09T18:46:39.527Z,99610.84
2022-12-09T18:49:28.540Z,99603.72
2022-12-09T18:52:15.353Z,99607.94
2022-12-09T18:55:02.660Z,99604.47
2022-12-09T18:57:50.986Z,99609.31
2022-12-09T19:00:38.410Z,99614.50
2022-12-09T19:03:25.749Z,99613.25
2022-12-09T19:06:22.096Z,99614.41
2022-12-09T19:09:11.043Z,99618.81
2022-12-09T19:12:11.271Z,99612.47
2022-12-09T19:15:08.855Z,99612.37
2022-12-09T19:17:56.394Z,99610.50
2022-12-09T19:20:43.919Z,99613.56
2022-12-09T19:23:35.318Z,99610.09
2022-12-09T19:26:24.760Z,99611.78
2022-12-09T19:29:14.129Z,99617.41
2022-12-09T19:32:02.271Z,99606.75
2022-12-09T19:34:49.684Z,99610.75
2022-12-09T19:37:36.594Z,99606.09
2022-12-09T19:40:23.528Z,99611.09
2022-12-09T19:43:10.442Z,99616.28
2022-12-09T19:46:03.515Z,99615.25
2022-12-09T19:48:52.205Z,99614.78
2022-12-09T19:51:39.240Z,99616.28
2022-12-09T19:54:29.020Z,99615.75
2022-12-09T19:57:16.362Z,99617.91
2022-12-09T20:00:03.264Z,99618.97
2022-12-09T20:02:52.104Z,99618.84
2022-12-09T20:05:48.319Z,99631.06
2022-12-09T20:08:35.766Z,99631.06
2022-12-09T20:11:25.971Z,99635.13
2022-12-09T20:14:14.730Z,99631.62
2022-12-09T20:17:01.854Z,99630.53
2022-12-09T20:19:48.673Z,99643.59
2022-12-09T20:22:37.006Z,99633.06
2022-12-09T20:25:23.728Z,99644.34
2022-12-09T20:28:10.736Z,99632.34
2022-12-09T20:31:03.253Z,99636.69
2022-12-09T20:33:53.978Z,99633.00
2022-12-09T20:36:42.254Z,99632.56
2022-12-09T20:39:30.530Z,99629.81
2022-12-09T20:42:17.515Z,99634.50
2022-12-09T20:45:05.638Z,99626.72
2022-12-09T20:47:53.080Z,99636.25
2022-12-09T20:50:40.289Z,99634.91
2022-12-09T20:53:27.348Z,99637.78
2022-12-09T20:56:16.981Z,99645.31
2022-12-09T20:59:04.913Z,99648.56
2022-12-09T21:01:54.074Z,99651.41
2022-12-09T21:04:41.068Z,99649.25
2022-12-09T21:07:28.497Z,99646.84
2022-12-09T21:10:15.511Z,99644.25
2022-12-09T21:13:04.647Z,99649.09
2022-12-09T21:15:51.276Z,99650.75
2022-12-09T21:18:39.220Z,99649.16
2022-12-09T21:21:27.597Z,99647.97
2022-12-09T21:24:15.954Z,99650.50
2022-12-09T21:27:02.948Z,99654.41
2022-12-09T21:29:51.589Z,99651.69
2022-12-09T21:32:39.424Z,99654.31
2022-12-09T21:35:26.637Z,99651.06
2022-12-09T21:38:13.557Z,99655.34
2022-12-09T21:41:03.655Z,99649.22
2022-12-09T21:43:50.458Z,99650.37
2022-12-09T21:46:39.821Z,99648.13
2022-12-09T21:49:29.610Z,99654.41
2022-12-09T21:52:16.976Z,99658.19
2022-12-09T21:55:03.767Z,99659.66
2022-12-09T21:57:51.005Z,99664.31
2022-12-09T22:00:38.915Z,99665.09
2022-12-09T22:03:27.785Z,99664.91
2022-12-09T22:06:16.154Z,99669.62
2022-12-09T22:09:04.865Z,99672.34
2022-12-09T22:11:51.675Z,99665.63
2022-12-09T22:14:39.104Z,99666.84
2022-12-09T22:17:25.891Z,99665.84
2022-12-09T22:20:53.969Z,99665.22
2022-12-09T22:23:21.794Z,99659.97
2022-12-09T22:26:10.541Z,99660.28
2022-12-09T22:28:59.488Z,99662.66
2022-12-09T22:31:47.467Z,99666.94
2022-12-09T22:34:34.142Z,99662.38
2022-12-09T22:37:43.000Z,99663.59
2022-12-09T22:40:30.396Z,99670.38
2022-12-09T22:43:17.635Z,99669.25
2022-12-09T22:46:05.504Z,99675.88
2022-12-09T22:48:52.533Z,99673.03
2022-12-09T22:51:39.749Z,99674.56
2022-12-09T22:54:28.619Z,99673.03
2022-12-09T22:57:15.413Z,99670.97
2022-12-09T23:00:02.859Z,99669.00
2022-12-09T23:02:49.795Z,99679.28
2022-12-09T23:05:38.031Z,99675.09
2022-12-09T23:08:24.697Z,99677.12
2022-12-09T23:11:17.215Z,99682.38
2022-12-09T23:14:04.208Z,99689.13
2022-12-09T23:16:52.175Z,99677.06
2022-12-09T23:19:38.832Z,99686.09
2022-12-09T23:22:27.197Z,99678.84
2022-12-09T23:25:14.609Z,99683.75
2022-12-09T23:28:04.363Z,99683.03
2022-12-09T23:30:51.219Z,99677.22
2022-12-09T23:33:39.236Z,99683.75
2022-12-09T23:36:28.226Z,99683.25
2022-12-09T23:39:17.999Z,99679.69
2022-12-09T23:42:05.108Z,99679.69
2022-12-09T23:44:53.629Z,99682.56
2022-12-09T23:47:40.570Z,99684.66
2022-12-09T23:50:27.772Z,99695.16
2022-12-09T23:53:14.393Z,99691.47
2022-12-09T23:56:01.761Z,99682.72
2022-12-09T23:58:48.930Z,99685.81
